HOURLY OBS INDEX

065

Central Western Slopes - south

COWRA AIRPORT AWS

Site: 065111
Alt: 300.4m
5km SW of COWRA


  Time     Wind        Temp  DP   Baro     Rain since   Rain past  Vis(m), Cloud(base in m), Weather
  local        km/h                         9am  last   hr   10m    
Wed 15:00   SW 22/ 33  18.2 -0.6  1012.6    0.0   0.0   0.0   0.0   ----- 
Wed 15:30  SSW 28/ 39  17.9 -2.4  1012.6    0.0   0.0   0.0   0.0   ----- 
Wed 16:00   SW 26/ 35  17.7 -3.1  1012.8    0.0   0.0   0.0   0.0   ----- 
Wed 16:30   SW 28/ 37  16.9 -4.3  1013.1    0.0   0.0   0.0   0.0   ----- 
Wed 17:00   SW 26/ 32  16.2 -5.5  1013.5    0.0   0.0   0.0   0.0   ----- 
Wed 17:30   SW 20/ 28  15.1 -4.8  1014.0    0.0   0.0   0.0   0.0   ----- 
Wed 18:00   SW 19/ 20  12.7 -4.9  1014.5    0.0   0.0   0.0   0.0   ----- 
Wed 18:30   SW 13/ 17  10.4 -5.6  1014.9    0.0   0.0   0.0   0.0   ----- 
Wed 19:00   SW 15/ 15   9.3 -4.6  1015.3    0.0   0.0   0.0   0.0   ----- 
Wed 19:30   SW 11/ 11   9.6 -4.7  1015.6    0.0   0.0   0.0   0.0   ----- 
Wed 20:00  SSW 11/ 11   9.0 -4.2  1015.9    0.0   0.0   0.0   0.0   ----- 
Wed 20:30   SW  9/ 11   8.2 -3.9  1016.3    0.0   0.0   0.0   0.0   ----- 

DUBBO AIRPORT AWS

Site: 065070
Alt: 284.0m
4km NW of DUBBO


  Time     Wind        Temp  DP   Baro     Rain since   Rain past  Vis(m), Cloud(base in m), Weather
  local        km/h                         9am  last   hr   10m    
Wed 15:00  WNW 20/ 24  21.6 -1.0  1012.3    0.0   0.0   0.0   0.0   10000 
Wed 15:30    W 22/ 30  21.4 -1.2  1012.1    0.0   0.0   0.0   0.0   10000 
Wed 16:00  WSW 22/ 35  21.0 -0.3  1012.1    0.0   0.0   0.0   0.0   10000 
Wed 16:30  WSW 28/ 39  20.3 -0.9  1012.4    0.0   0.0   0.0   0.0   10000 
Wed 17:00  WSW 24/ 33  19.1 -1.4  1012.8    0.0   0.0   0.0   0.0   10000 
Wed 17:30    W 24/ 32  18.1 -1.7  1013.3    0.0   0.0   0.0   0.0   10000 
Wed 18:00  WSW 20/ 30  16.3 -2.7  1013.9    0.0   0.0   0.0   0.0   10000 
Wed 18:30  WSW 20/ 28  15.6 -3.3  1014.3    0.0   0.0   0.0   0.0   10000 
Wed 19:00  WSW 19/ 24  14.9 -3.4  1014.6    0.0   0.0   0.0   0.0   10000 
Wed 19:30  WSW 20/ 26  14.2 -4.5  1015.0    0.0   0.0   0.0   0.0   10000 
Wed 20:00  WSW 17/ 24  13.9 -5.3  1015.5    0.0   0.0   0.0   0.0   10000 
Wed 20:30  WSW 17/ 20  12.5 -5.5  1016.0    0.0   0.0   0.0   0.0   10000 

FORBES AIRPORT AWS

Site: 065103
Alt: 230.4m
34km SW of PARKES


  Time     Wind        Temp  DP   Baro     Rain since   Rain past  Vis(m), Cloud(base in m), Weather
  local        km/h                         9am  last   hr   10m    
Wed 15:00   SW 22/ 32  18.7 -3.4  1013.1    0.0   0.0   0.0   0.0   ----- 
Wed 15:30   SW 28/ 37  18.4 -3.7  1013.4    0.0   0.0   0.0   0.0   ----- 
Wed 16:00   SW 22/ 32  17.9 -6.0  1013.6    0.0   0.0   0.0   0.0   ----- 
Wed 16:30  WSW 20/ 33  17.4 -6.4  1013.7    0.0   0.0   0.0   0.0   ----- 
Wed 17:00  WSW 22/ 32  16.8 -6.9  1013.9    0.0   0.0   0.0   0.0   ----- 
Wed 17:30   SW 13/ 22  16.1 -5.0  1014.3    0.0   0.0   0.0   0.0   ----- 
Wed 18:00  WSW 13/ 19  14.3 -6.0  1014.7    0.0   0.0   0.0   0.0   ----- 
Wed 18:30   SW 11/ 15  13.2 -5.4  1015.0    0.0   0.0   0.0   0.0   ----- 
Wed 19:00   SW  9/ 13  12.0 -5.5  1015.4    0.0   0.0   0.0   0.0   ----- 
Wed 19:30   SW 11/ 15  12.4 -4.7  1015.8    0.0   0.0   0.0   0.0   ----- 
Wed 20:00   SW  9/ 13  11.5 -4.6  1016.2    0.0   0.0   0.0   0.0   ----- 
Wed 20:30  SSW 11/ 15  11.1 -4.1  1016.4    0.0   0.0   0.0   0.0   ----- 

PARKES AIRPORT AWS

Site: 065068
Alt: 323.3m
7km E of PARKES


  Time     Wind        Temp  DP   Baro     Rain since   Rain past  Vis(m), Cloud(base in m), Weather
  local        km/h                         9am  last   hr   10m    
Wed 15:00   SW 28/ 41  18.5 -1.3  1013.2    0.0   0.0   0.0   0.0   10000 
Wed 15:30  SSW 28/ 45  18.5 -2.4  1013.1    0.0   0.0   0.0   0.0   10000 
Wed 16:00   SW 26/ 35  17.9 -1.9  1013.3    0.0   0.0   0.0   0.0   10000 
Wed 16:30   SW 28/ 35  16.9 -3.8  1013.5    0.0   0.0   0.0   0.0   10000 
Wed 17:00   SW 26/ 35  16.6 -4.6  1013.8    0.0   0.0   0.0   0.0   10000 
Wed 17:30   SW 24/ 30  15.6 -6.6  1014.3    0.0   0.0   0.0   0.0   10000 
Wed 18:00   SW 20/ 28  13.8 -6.9  1014.8    0.0   0.0   0.0   0.0   10000 
Wed 18:30   SW 15/ 19  11.8 -7.1  1015.1    0.0   0.0   0.0   0.0   10000 
Wed 19:00  SSW 11/ 15   9.7 -7.0  1015.6    0.0   0.0   0.0   0.0   10000 
Wed 19:30    S 11/ 11   9.2 -6.6  1015.9    0.0   0.0   0.0   0.0   10000 
Wed 20:00  SSW 11/ 13   9.0 -6.4  1016.3    0.0   0.0   0.0   0.0   10000 
Wed 20:30  SSW 11/ 11   8.8 -6.2  1016.5    0.0   0.0   0.0   0.0   10000